createdAt,value
2022-11-02T00:01:59.208Z,101176.26
2022-11-02T00:04:26.963Z,101171.66
2022-11-02T00:06:54.679Z,101174.74
2022-11-02T00:09:22.391Z,101176.45
2022-11-02T00:11:50.384Z,101178.90
2022-11-02T00:14:18.235Z,101175.70
2022-11-02T00:16:46.403Z,101180.36
2022-11-02T00:19:14.686Z,101182.21
2022-11-02T00:21:42.760Z,101183.00
2022-11-02T00:24:12.692Z,101186.86
2022-11-02T00:26:40.543Z,101187.06
2022-11-02T00:29:08.614Z,101186.27
2022-11-02T00:31:36.640Z,101190.67
2022-11-02T00:34:04.459Z,101190.84
2022-11-02T00:36:32.278Z,101194.21
2022-11-02T00:39:00.146Z,101191.73
2022-11-02T00:41:27.927Z,101187.30
2022-11-02T00:43:55.711Z,101187.59
2022-11-02T00:46:23.451Z,101186.76
2022-11-02T00:48:51.505Z,101185.02
2022-11-02T00:51:19.536Z,101188.38
2022-11-02T00:53:47.703Z,101189.86
2022-11-02T00:56:15.673Z,101189.46
2022-11-02T00:58:43.712Z,101191.92
2022-11-02T01:01:12.641Z,101198.14
2022-11-02T01:03:40.847Z,101196.63
2022-11-02T01:06:13.894Z,101196.91
2022-11-02T01:08:42.380Z,101198.61
2022-11-02T01:11:16.722Z,101196.92
2022-11-02T01:13:46.003Z,101196.95
2022-11-02T01:16:15.467Z,101200.48
2022-11-02T01:18:44.008Z,101204.14
2022-11-02T01:21:11.816Z,101204.67
2022-11-02T01:23:40.540Z,101202.52
2022-11-02T01:26:09.842Z,101203.52
2022-11-02T01:28:38.131Z,101206.84
2022-11-02T01:31:07.257Z,101207.27
2022-11-02T01:33:36.441Z,101207.77
2022-11-02T01:36:06.853Z,101208.27
2022-11-02T01:38:34.655Z,101204.73
2022-11-02T01:41:02.443Z,101210.05
2022-11-02T01:43:32.830Z,101204.52
2022-11-02T01:46:19.312Z,101200.80
2022-11-02T01:48:53.275Z,101199.87
2022-11-02T01:51:27.107Z,101197.42
2022-11-02T01:54:00.236Z,101193.34
2022-11-02T01:56:33.089Z,101197.11
2022-11-02T01:59:06.592Z,101203.23
2022-11-02T02:01:34.840Z,101206.63
2022-11-02T02:04:03.334Z,101201.20
2022-11-02T02:06:36.545Z,101204.77
2022-11-02T02:09:08.091Z,101201.29
2022-11-02T02:11:38.864Z,101203.80
2022-11-02T02:14:19.941Z,101200.77
2022-11-02T02:16:54.288Z,101206.20
2022-11-02T02:19:34.346Z,101204.90
2022-11-02T02:22:09.624Z,101200.59
2022-11-02T02:24:54.101Z,101200.23
2022-11-02T02:27:35.145Z,101204.65
2022-11-02T02:30:09.859Z,101209.75
2022-11-02T02:32:41.341Z,101210.06
2022-11-02T02:35:25.828Z,101208.64
2022-11-02T02:37:53.553Z,101211.73
2022-11-02T02:40:27.539Z,101211.28
2022-11-02T02:43:04.244Z,101215.31
2022-11-02T02:45:52.693Z,101212.29
2022-11-02T02:48:23.448Z,101210.41
2022-11-02T02:50:57.133Z,101206.08
2022-11-02T02:53:32.592Z,101204.73
2022-11-02T02:56:02.597Z,101205.28
2022-11-02T02:58:38.897Z,101207.05
2022-11-02T03:01:11.102Z,101206.63
2022-11-02T03:03:42.434Z,101203.17
2022-11-02T03:06:15.980Z,101202.45
2022-11-02T03:08:58.638Z,101202.02
2022-11-02T03:11:28.201Z,101208.12
2022-11-02T03:14:12.519Z,101205.41
2022-11-02T03:16:55.808Z,101210.20
2022-11-02T03:19:36.919Z,101211.79
2022-11-02T03:22:16.640Z,101216.46
2022-11-02T03:24:55.555Z,101214.46
2022-11-02T03:27:51.164Z,101217.92
2022-11-02T03:30:22.542Z,101223.07
2022-11-02T03:33:07.463Z,101223.86
2022-11-02T03:35:51.408Z,101221.64
2022-11-02T03:38:22.347Z,101224.37
2022-11-02T03:40:54.326Z,101227.71
2022-11-02T03:43:25.179Z,101225.14
2022-11-02T03:46:02.180Z,101223.23
2022-11-02T03:48:36.152Z,101228.30
2022-11-02T03:51:10.568Z,101222.23
2022-11-02T03:53:53.505Z,101225.60
2022-11-02T03:56:45.623Z,101228.16
2022-11-02T03:59:14.536Z,101230.52
2022-11-02T04:01:46.434Z,101234.81
2022-11-02T04:04:14.772Z,101234.98
2022-11-02T04:06:47.019Z,101241.02
2022-11-02T04:09:15.576Z,101243.55
2022-11-02T04:12:02.675Z,101250.03
2022-11-02T04:14:40.215Z,101251.66
2022-11-02T04:17:32.356Z,101252.75
2022-11-02T04:20:01.986Z,101253.09
2022-11-02T04:22:49.100Z,101253.77
2022-11-02T04:25:19.345Z,101256.98
2022-11-02T04:28:10.110Z,101254.67
2022-11-02T04:30:50.423Z,101254.84
2022-11-02T04:33:35.431Z,101250.84
2022-11-02T04:36:15.490Z,101246.33
2022-11-02T04:38:44.350Z,101243.64
2022-11-02T04:41:41.263Z,101244.39
2022-11-02T04:44:29.251Z,101238.23
2022-11-02T04:47:03.428Z,101237.54
2022-11-02T04:49:33.171Z,101235.40
2022-11-02T04:52:01.267Z,101237.36
2022-11-02T04:54:29.802Z,101235.61
2022-11-02T04:57:01.002Z,101237.00
2022-11-02T04:59:29.368Z,101237.02
2022-11-02T05:01:57.497Z,101234.77
2022-11-02T05:04:25.629Z,101233.27
2022-11-02T05:06:56.383Z,101233.92
2022-11-02T05:09:28.135Z,101233.89
2022-11-02T05:11:56.170Z,101232.73
2022-11-02T05:14:23.996Z,101236.96
2022-11-02T05:16:52.260Z,101241.88
2022-11-02T05:19:20.057Z,101241.39
2022-11-02T05:21:48.809Z,101251.05
2022-11-02T05:24:16.651Z,101254.10
2022-11-02T05:26:44.475Z,101258.13
2022-11-02T05:29:13.445Z,101259.66
2022-11-02T05:31:41.768Z,101260.40
2022-11-02T05:34:09.507Z,101259.49
2022-11-02T05:36:38.297Z,101255.21
2022-11-02T05:39:06.132Z,101254.31
2022-11-02T05:41:34.173Z,101252.92
2022-11-02T05:44:02.474Z,101253.41
2022-11-02T05:46:31.454Z,101254.62
2022-11-02T05:48:59.183Z,101250.15
2022-11-02T05:51:26.920Z,101251.65
2022-11-02T05:53:55.006Z,101253.45
2022-11-02T05:56:25.212Z,101254.16
2022-11-02T05:58:55.149Z,101251.47
2022-11-02T06:01:22.958Z,101252.30
2022-11-02T06:03:53.754Z,101254.93
2022-11-02T06:06:22.328Z,101254.14
2022-11-02T06:08:50.069Z,101259.78
2022-11-02T06:11:17.910Z,101262.42
2022-11-02T06:13:50.421Z,101269.31
2022-11-02T06:16:23.099Z,101268.33
2022-11-02T06:18:51.862Z,101270.09
2022-11-02T06:21:19.691Z,101275.96
2022-11-02T06:23:48.663Z,101277.42
2022-11-02T06:26:16.514Z,101279.70
2022-11-02T06:28:44.361Z,101280.08
2022-11-02T06:31:13.312Z,101275.95
2022-11-02T06:33:41.056Z,101273.80
2022-11-02T06:36:09.202Z,101276.14
2022-11-02T06:38:38.722Z,101278.23
2022-11-02T06:41:06.984Z,101279.45
2022-11-02T06:43:38.619Z,101280.25
2022-11-02T06:46:06.688Z,101284.01
2022-11-02T06:48:35.545Z,101285.56
2022-11-02T06:51:05.301Z,101288.19
2022-11-02T06:53:33.932Z,101289.46
2022-11-02T06:56:02.367Z,101293.67
2022-11-02T06:58:30.247Z,101296.98
2022-11-02T07:01:00.730Z,101293.47
2022-11-02T07:03:30.291Z,101292.59
2022-11-02T07:05:58.439Z,101293.30
2022-11-02T07:08:27.668Z,101293.30
2022-11-02T07:10:56.522Z,101293.71
2022-11-02T07:13:24.644Z,101295.15
2022-11-02T07:15:54.273Z,101295.03
2022-11-02T07:18:22.865Z,101297.27
2022-11-02T07:20:50.650Z,101292.11
2022-11-02T07:23:18.583Z,101292.59
2022-11-02T07:25:46.518Z,101294.13
2022-11-02T07:28:14.326Z,101304.63
2022-11-02T07:30:42.235Z,101298.66
2022-11-02T07:33:10.204Z,101298.73
2022-11-02T07:35:38.348Z,101291.98
2022-11-02T07:38:07.796Z,101289.77
2022-11-02T07:40:36.840Z,101295.48
2022-11-02T07:43:06.383Z,101301.90
2022-11-02T07:46:04.169Z,101294.06
2022-11-02T07:48:32.164Z,101291.46
2022-11-02T07:51:00.066Z,101292.87
2022-11-02T07:53:28.110Z,101295.01
2022-11-02T07:55:55.791Z,101299.10
2022-11-02T07:58:23.538Z,101288.41
2022-11-02T08:00:55.858Z,101295.21
2022-11-02T08:03:27.409Z,101297.16
2022-11-02T08:06:02.093Z,101292.70
2022-11-02T08:08:31.028Z,101293.20
2022-11-02T08:11:07.110Z,101293.82
2022-11-02T08:13:35.396Z,101291.98
2022-11-02T08:16:03.557Z,101285.95
2022-11-02T08:18:51.261Z,101283.14
2022-11-02T08:21:19.141Z,101284.76
2022-11-02T08:23:46.955Z,101289.70
2022-11-02T08:26:14.750Z,101293.20
2022-11-02T08:28:42.654Z,101294.52
2022-11-02T08:31:15.981Z,101286.73
2022-11-02T08:33:44.956Z,101284.79
2022-11-02T08:36:12.871Z,101288.54
2022-11-02T08:38:40.745Z,101293.80
2022-11-02T08:41:08.665Z,101285.02
2022-11-02T08:43:36.517Z,101285.53
2022-11-02T08:46:19.658Z,101284.77
2022-11-02T08:48:47.733Z,101279.79
2022-11-02T08:51:15.812Z,101278.28
2022-11-02T08:53:48.625Z,101272.91
2022-11-02T08:56:19.429Z,101274.71
2022-11-02T08:58:47.267Z,101271.94
2022-11-02T09:01:15.246Z,101277.06
2022-11-02T09:03:43.152Z,101276.69
2022-11-02T09:06:10.960Z,101276.79
2022-11-02T09:08:38.834Z,101274.73
2022-11-02T09:11:07.088Z,101277.33
2022-11-02T09:13:34.939Z,101279.13
2022-11-02T09:16:03.259Z,101277.28
2022-11-02T09:18:31.435Z,101283.69
2022-11-02T09:21:05.602Z,101279.70
2022-11-02T09:23:33.824Z,101273.61
2022-11-02T09:26:01.694Z,101278.45
2022-11-02T09:28:29.556Z,101279.30
2022-11-02T09:30:57.364Z,101279.66
2022-11-02T09:33:25.191Z,101274.79
2022-11-02T09:35:53.262Z,101270.77
2022-11-02T09:38:21.130Z,101271.66
2022-11-02T09:41:02.455Z,101274.90
2022-11-02T09:44:03.777Z,101266.28
2022-11-02T09:46:34.499Z,101265.83
2022-11-02T09:49:11.992Z,101263.00
2022-11-02T09:51:47.401Z,101258.50
2022-11-02T09:54:30.973Z,101261.64
2022-11-02T09:57:04.591Z,101257.59
2022-11-02T09:59:33.261Z,101260.02
2022-11-02T10:02:19.924Z,101258.09
2022-11-02T10:05:00.240Z,101254.93
2022-11-02T10:07:52.620Z,101259.84
2022-11-02T10:10:27.632Z,101258.02
2022-11-02T10:12:58.647Z,101258.30
2022-11-02T10:15:40.401Z,101252.71
2022-11-02T10:18:18.138Z,101258.60
2022-11-02T10:20:49.848Z,101257.43
2022-11-02T10:23:29.130Z,101255.80
2022-11-02T10:25:57.063Z,101257.36
2022-11-02T10:28:30.667Z,101262.86
2022-11-02T10:30:58.921Z,101264.96
2022-11-02T10:33:28.393Z,101263.83
2022-11-02T10:36:23.682Z,101265.09
2022-11-02T10:39:05.278Z,101261.73
2022-11-02T10:41:52.442Z,101255.55
2022-11-02T10:44:45.047Z,101258.19
2022-11-02T10:47:20.611Z,101262.02
2022-11-02T10:50:25.696Z,101263.16
2022-11-02T10:52:53.529Z,101262.70
2022-11-02T10:55:49.707Z,101257.80
2022-11-02T10:58:21.489Z,101254.16
2022-11-02T11:00:49.847Z,101248.13
2022-11-02T11:03:19.075Z,101243.02
2022-11-02T11:05:49.701Z,101248.86
2022-11-02T11:08:39.044Z,101247.83
2022-11-02T11:11:18.950Z,101245.70
2022-11-02T11:16:50.257Z,101246.88
2022-11-02T11:22:33.104Z,101250.85
2022-11-02T11:25:13.311Z,101249.04
2022-11-02T11:27:54.919Z,101248.61
2022-11-02T11:33:23.475Z,101246.91
2022-11-02T11:35:51.939Z,101244.03
2022-11-02T11:38:22.807Z,101244.17
2022-11-02T11:40:54.550Z,101234.80
2022-11-02T11:43:26.913Z,101232.45
2022-11-02T11:46:05.833Z,101227.14
2022-11-02T11:48:38.237Z,101224.58
2022-11-02T11:51:25.127Z,101224.40
2022-11-02T11:54:15.166Z,101225.80
2022-11-02T11:56:42.997Z,101219.09
2022-11-02T11:59:28.192Z,101218.04
2022-11-02T12:01:58.777Z,101227.86
2022-11-02T12:04:28.447Z,101231.70
2022-11-02T12:07:45.694Z,101231.45
2022-11-02T12:10:32.577Z,101233.79
2022-11-02T12:13:20.640Z,101236.69
2022-11-02T12:16:17.650Z,101233.96
2022-11-02T12:19:07.595Z,101231.52
2022-11-02T12:21:46.047Z,101226.73
2022-11-02T12:24:39.044Z,101229.51
2022-11-02T12:27:23.043Z,101231.30
2022-11-02T12:30:09.578Z,101230.14
2022-11-02T12:32:50.244Z,101232.20
2022-11-02T12:35:43.255Z,101240.99
2022-11-02T12:38:41.940Z,101232.84
2022-11-02T12:41:22.440Z,101233.24
2022-11-02T12:43:58.388Z,101232.09
2022-11-02T12:46:44.517Z,101235.36
2022-11-02T12:49:36.531Z,101231.69
2022-11-02T12:52:13.631Z,101234.30
2022-11-02T12:54:48.125Z,101229.50
2022-11-02T12:57:21.068Z,101227.02
2022-11-02T12:59:55.250Z,101224.63
2022-11-02T13:02:29.450Z,101222.45
2022-11-02T13:05:17.781Z,101227.48
2022-11-02T13:07:59.534Z,101231.64
2022-11-02T13:10:43.055Z,101231.86
2022-11-02T13:13:16.469Z,101235.91
2022-11-02T13:15:47.387Z,101241.36
2022-11-02T13:18:24.051Z,101244.30
2022-11-02T13:20:55.709Z,101242.40
2022-11-02T13:23:46.518Z,101249.55
2022-11-02T13:26:27.507Z,101244.45
2022-11-02T13:28:57.245Z,101248.38
2022-11-02T13:31:46.748Z,101242.70
2022-11-02T13:34:41.481Z,101246.04
2022-11-02T13:37:35.927Z,101251.61
2022-11-02T13:40:28.262Z,101255.15
2022-11-02T13:43:23.278Z,101258.81
2022-11-02T13:46:40.031Z,101256.80
2022-11-02T13:49:19.752Z,101258.78
2022-11-02T13:51:59.615Z,101257.45
2022-11-02T13:54:30.328Z,101261.77
2022-11-02T13:56:59.065Z,101255.50
2022-11-02T13:59:33.399Z,101256.52
2022-11-02T14:02:03.609Z,101257.46
2022-11-02T14:04:43.095Z,101261.71
2022-11-02T14:07:28.065Z,101265.65
2022-11-02T14:10:08.751Z,101267.48
2022-11-02T14:12:43.525Z,101265.81
2022-11-02T14:15:14.170Z,101269.15
2022-11-02T14:17:54.782Z,101272.88
2022-11-02T14:20:44.679Z,101271.10
2022-11-02T14:23:14.274Z,101269.53
2022-11-02T14:25:53.504Z,101268.47
2022-11-02T14:28:28.962Z,101267.34
2022-11-02T14:31:06.088Z,101270.39
2022-11-02T14:33:52.949Z,101270.09
2022-11-02T14:36:42.152Z,101272.50
2022-11-02T14:39:29.052Z,101267.58
2022-11-02T14:41:57.123Z,101270.86
2022-11-02T14:44:37.107Z,101271.30
2022-11-02T14:47:17.430Z,101267.44
2022-11-02T14:49:56.257Z,101268.60
2022-11-02T14:52:24.089Z,101267.35
2022-11-02T14:55:08.265Z,101271.97
2022-11-02T14:57:40.681Z,101267.66
2022-11-02T15:00:47.657Z,101271.45
2022-11-02T15:03:25.333Z,101274.44
2022-11-02T15:06:03.211Z,101278.29
2022-11-02T15:08:36.302Z,101278.62
2022-11-02T15:11:41.946Z,101277.66
2022-11-02T15:14:39.019Z,101281.09
2022-11-02T15:17:13.029Z,101278.88
2022-11-02T15:19:46.436Z,101283.03
2022-11-02T15:22:32.677Z,101289.86
2022-11-02T15:25:07.283Z,101289.36
2022-11-02T15:27:41.343Z,101294.80
2022-11-02T15:30:29.005Z,101303.77
2022-11-02T15:33:02.822Z,101301.09
2022-11-02T15:35:37.110Z,101301.20
2022-11-02T15:38:30.468Z,101302.59
2022-11-02T15:41:08.000Z,101305.71
2022-11-02T15:44:04.067Z,101310.34
2022-11-02T15:46:45.351Z,101311.92
2022-11-02T15:49:32.125Z,101311.69
2022-11-02T15:52:25.129Z,101311.84
2022-11-02T15:54:55.607Z,101309.02
2022-11-02T15:57:36.500Z,101315.58
2022-11-02T16:00:30.508Z,101317.64
2022-11-02T16:03:06.665Z,101325.05
2022-11-02T16:05:45.370Z,101327.16
2022-11-02T16:11:21.062Z,101330.96
2022-11-02T16:14:07.577Z,101337.40
2022-11-02T16:16:46.169Z,101335.77
2022-11-02T16:19:20.326Z,101337.27
2022-11-02T16:21:48.254Z,101342.02
2022-11-02T16:24:15.248Z,101343.36
2022-11-02T16:26:44.102Z,101347.92
2022-11-02T16:29:11.321Z,101348.75
2022-11-02T16:31:40.315Z,101353.48
2022-11-02T16:34:29.937Z,101356.48
2022-11-02T16:36:59.384Z,101353.62
2022-11-02T16:39:37.957Z,101351.30
2022-11-02T16:42:15.068Z,101355.14
2022-11-02T16:44:42.760Z,101361.94
2022-11-02T16:47:09.334Z,101369.63
2022-11-02T16:49:57.436Z,101371.41
2022-11-02T16:52:35.591Z,101377.20
2022-11-02T16:55:22.236Z,101386.04
2022-11-02T16:57:48.868Z,101393.97
2022-11-02T17:00:19.699Z,101397.04
2022-11-02T17:02:47.029Z,101398.36
2022-11-02T17:05:22.878Z,101401.19
2022-11-02T17:08:04.121Z,101405.02
2022-11-02T17:10:33.875Z,101406.90
2022-11-02T17:13:02.354Z,101409.66
2022-11-02T17:15:31.758Z,101414.23
2022-11-02T17:18:07.418Z,101413.95
2022-11-02T17:20:34.955Z,101412.64
2022-11-02T17:23:07.235Z,101414.56
2022-11-02T17:25:36.283Z,101418.61
2022-11-02T17:28:24.088Z,101421.19
2022-11-02T17:30:52.233Z,101420.01
2022-11-02T17:33:24.161Z,101419.22
2022-11-02T17:35:53.098Z,101425.02
2022-11-02T17:38:25.971Z,101420.55
2022-11-02T17:40:53.774Z,101416.95
2022-11-02T17:43:21.851Z,101416.59
2022-11-02T17:45:58.956Z,101423.20
2022-11-02T17:48:30.351Z,101423.63
2022-11-02T17:50:59.218Z,101423.04
2022-11-02T17:53:26.128Z,101420.01
2022-11-02T17:55:53.834Z,101421.04
2022-11-02T17:58:20.255Z,101422.71
2022-11-02T18:00:46.824Z,101420.52
2022-11-02T18:03:16.664Z,101414.64
2022-11-02T18:05:46.631Z,101416.73
2022-11-02T18:08:16.686Z,101418.72
2022-11-02T18:10:45.875Z,101415.29
2022-11-02T18:13:14.383Z,101415.89
2022-11-02T18:15:41.246Z,101413.52
2022-11-02T18:18:08.173Z,101416.52
2022-11-02T18:20:40.177Z,101413.05
2022-11-02T18:23:14.749Z,101406.73
2022-11-02T18:25:41.500Z,101409.00
2022-11-02T18:28:08.160Z,101405.86
2022-11-02T18:30:34.897Z,101411.20
2022-11-02T18:33:02.264Z,101411.60
2022-11-02T18:35:28.782Z,101418.95
2022-11-02T18:37:55.221Z,101423.36
2022-11-02T18:40:21.849Z,101420.43
2022-11-02T18:42:49.248Z,101417.10
2022-11-02T18:45:16.188Z,101414.18
2022-11-02T18:47:42.858Z,101415.22
2022-11-02T18:50:11.782Z,101416.70
2022-11-02T18:52:39.673Z,101423.55
2022-11-02T18:55:06.702Z,101427.58
2022-11-02T18:57:33.439Z,101430.44
2022-11-02T19:00:02.204Z,101430.73
2022-11-02T19:02:29.487Z,101431.34
2022-11-02T19:04:56.280Z,101432.48
2022-11-02T19:07:41.462Z,101437.02
2022-11-02T19:10:09.207Z,101435.70
2022-11-02T19:12:35.910Z,101435.41
2022-11-02T19:15:02.490Z,101435.90
2022-11-02T19:17:29.287Z,101443.02
2022-11-02T19:19:56.554Z,101442.02
2022-11-02T19:22:25.128Z,101441.70
2022-11-02T19:24:52.000Z,101444.31
2022-11-02T19:27:23.528Z,101443.70
2022-11-02T19:29:50.734Z,101446.36
2022-11-02T19:32:18.091Z,101447.63
2022-11-02T19:34:45.138Z,101450.08
2022-11-02T19:37:12.316Z,101455.88
2022-11-02T19:39:39.064Z,101456.11
2022-11-02T19:42:06.741Z,101459.40
2022-11-02T19:44:35.985Z,101461.99
2022-11-02T19:47:07.557Z,101466.12
2022-11-02T19:49:33.933Z,101468.23
2022-11-02T19:52:00.725Z,101470.23
2022-11-02T19:54:27.258Z,101467.70
2022-11-02T19:56:53.768Z,101469.41
2022-11-02T19:59:20.255Z,101476.30
2022-11-02T20:01:47.887Z,101476.40
2022-11-02T20:04:14.585Z,101479.77
2022-11-02T20:06:43.012Z,101480.59
2022-11-02T20:09:15.708Z,101488.16
2022-11-02T20:11:44.541Z,101488.21
2022-11-02T20:14:12.857Z,101488.27
2022-11-02T20:16:39.908Z,101492.36
2022-11-02T20:19:07.258Z,101495.48
2022-11-02T20:21:38.210Z,101495.90
2022-11-02T20:24:08.256Z,101501.23
2022-11-02T20:26:36.085Z,101503.38
2022-11-02T20:29:04.781Z,101503.73
2022-11-02T20:31:36.871Z,101502.91
2022-11-02T20:34:05.784Z,101502.89
2022-11-02T20:36:34.072Z,101502.05
2022-11-02T20:39:02.754Z,101503.19
2022-11-02T20:41:29.215Z,101502.83
2022-11-02T20:43:56.381Z,101511.65
2022-11-02T20:46:44.505Z,101515.40
2022-11-02T20:49:21.846Z,101520.27
2022-11-02T20:51:50.347Z,101523.07
2022-11-02T20:54:18.702Z,101523.38
2022-11-02T20:56:45.477Z,101521.88
2022-11-02T20:59:12.054Z,101525.18
2022-11-02T21:01:38.576Z,101526.35
2022-11-02T21:04:05.360Z,101527.27
2022-11-02T21:06:31.869Z,101527.54
2022-11-02T21:08:59.942Z,101530.56
2022-11-02T21:11:45.346Z,101527.73
2022-11-02T21:14:11.777Z,101536.34
2022-11-02T21:16:38.419Z,101534.77
2022-11-02T21:19:04.926Z,101537.69
2022-11-02T21:21:31.526Z,101540.47
2022-11-02T21:23:57.936Z,101542.98
2022-11-02T21:26:24.419Z,101543.85
2022-11-02T21:28:50.882Z,101553.67
2022-11-02T21:31:19.756Z,101550.83
2022-11-02T21:33:48.248Z,101546.81
2022-11-02T21:36:16.803Z,101544.98
2022-11-02T21:38:48.017Z,101545.77
2022-11-02T21:41:21.182Z,101544.92
2022-11-02T21:43:51.137Z,101540.64
2022-11-02T21:46:18.787Z,101540.07
2022-11-02T21:48:45.250Z,101538.95
2022-11-02T21:51:18.976Z,101537.13
2022-11-02T21:53:47.090Z,101535.12
2022-11-02T21:56:16.332Z,101539.49
2022-11-02T21:58:46.125Z,101539.73
2022-11-02T22:01:42.304Z,101544.44
2022-11-02T22:04:11.358Z,101547.52
2022-11-02T22:06:38.290Z,101546.41
2022-11-02T22:09:07.074Z,101547.24
2022-11-02T22:11:34.420Z,101547.94
2022-11-02T22:14:01.818Z,101543.94
2022-11-02T22:16:37.071Z,101541.77
2022-11-02T22:19:11.680Z,101549.88
2022-11-02T22:21:40.671Z,101550.77
2022-11-02T22:24:08.460Z,101557.80
2022-11-02T22:26:36.638Z,101561.65
2022-11-02T22:29:04.011Z,101561.39
2022-11-02T22:31:33.749Z,101564.92
2022-11-02T22:34:01.569Z,101563.15
2022-11-02T22:36:31.928Z,101563.42
2022-11-02T22:39:00.174Z,101561.24
2022-11-02T22:41:47.056Z,101561.70
2022-11-02T22:44:20.310Z,101557.23
2022-11-02T22:46:49.123Z,101560.86
2022-11-02T22:49:17.494Z,101563.81
2022-11-02T22:51:46.440Z,101571.08
2022-11-02T22:54:15.541Z,101570.13
2022-11-02T22:56:43.714Z,101573.35
2022-11-02T22:59:11.031Z,101576.33
2022-11-02T23:01:38.448Z,101578.85
2022-11-02T23:04:06.289Z,101576.98
2022-11-02T23:06:33.549Z,101573.95
2022-11-02T23:09:00.798Z,101575.73
2022-11-02T23:11:30.555Z,101577.95
2022-11-02T23:13:58.246Z,101578.95
2022-11-02T23:16:29.417Z,101578.77
2022-11-02T23:19:22.075Z,101581.80
2022-11-02T23:22:22.785Z,101591.64
2022-11-02T23:25:11.590Z,101592.57
2022-11-02T23:28:17.095Z,101596.88
2022-11-02T23:31:02.501Z,101598.86
2022-11-02T23:33:35.577Z,101599.14
2022-11-02T23:36:13.398Z,101604.45
2022-11-02T23:39:00.760Z,101602.50
2022-11-02T23:41:28.751Z,101607.06
2022-11-02T23:44:10.875Z,101604.87
2022-11-02T23:46:42.575Z,101602.77
2022-11-02T23:49:09.785Z,101603.49
2022-11-02T23:51:55.421Z,101602.92
2022-11-02T23:54:40.905Z,101606.36
2022-11-02T23:57:07.322Z,101598.67
2022-11-02T23:59:33.859Z,101600.23
